createdAt,value
2023-04-11T00:01:09.569Z,6.70
2023-04-11T00:03:39.195Z,6.60
2023-04-11T00:06:06.656Z,6.50
2023-04-11T00:08:33.468Z,6.50
2023-04-11T00:11:00.439Z,6.40
2023-04-11T00:13:27.381Z,6.40
2023-04-11T00:15:55.806Z,6.40
2023-04-11T00:18:23.170Z,6.40
2023-04-11T00:20:50.068Z,6.40
2023-04-11T00:23:17.060Z,6.40
2023-04-11T00:25:43.907Z,6.40
2023-04-11T00:28:10.950Z,6.40
2023-04-11T00:30:39.107Z,6.40
2023-04-11T00:33:06.013Z,6.30
2023-04-11T00:35:35.165Z,6.30
2023-04-11T00:38:02.382Z,6.20
2023-04-11T00:40:29.630Z,6.20
2023-04-11T00:42:57.291Z,6.20
2023-04-11T00:45:24.571Z,6.10
2023-04-11T00:47:51.770Z,6.10
2023-04-11T00:50:22.042Z,6.10
2023-04-11T00:52:51.073Z,6.10
2023-04-11T00:55:18.021Z,6.10
2023-04-11T00:57:45.053Z,6.00
2023-04-11T01:00:13.028Z,6.00
2023-04-11T01:02:43.657Z,6.00
2023-04-11T01:05:12.654Z,6.10
2023-04-11T01:07:43.182Z,6.10
2023-04-11T01:10:11.067Z,6.10
2023-04-11T01:12:39.241Z,6.20
2023-04-11T01:15:06.848Z,6.20
2023-04-11T01:17:33.969Z,6.20
2023-04-11T01:20:01.175Z,6.20
2023-04-11T01:22:29.010Z,6.30
2023-04-11T01:24:56.383Z,6.30
2023-04-11T01:27:23.294Z,6.30
2023-04-11T01:29:50.104Z,6.30
2023-04-11T01:32:16.938Z,6.30
2023-04-11T01:34:47.065Z,6.30
2023-04-11T01:37:14.067Z,6.30
2023-04-11T01:39:41.110Z,6.30
2023-04-11T01:42:09.170Z,6.30
2023-04-11T01:44:37.106Z,6.30
2023-04-11T01:47:04.259Z,6.20
2023-04-11T01:49:31.191Z,6.10
2023-04-11T01:51:58.078Z,6.10
2023-04-11T01:54:25.030Z,6.10
2023-04-11T01:56:52.485Z,6.10
2023-04-11T01:59:19.602Z,6.20
2023-04-11T02:01:46.590Z,6.30
2023-04-11T02:04:13.745Z,6.30
2023-04-11T02:06:40.808Z,6.40
2023-04-11T02:09:08.044Z,6.40
2023-04-11T02:11:34.934Z,6.40
2023-04-11T02:14:02.943Z,6.50
2023-04-11T02:16:30.001Z,6.50
2023-04-11T02:18:58.096Z,6.60
2023-04-11T02:21:25.629Z,6.50
2023-04-11T02:23:52.451Z,6.50
2023-04-11T02:26:19.449Z,6.50
2023-04-11T02:28:46.309Z,6.50
2023-04-11T02:31:13.333Z,6.40
2023-04-11T02:33:40.325Z,6.50
2023-04-11T02:36:07.441Z,6.40
2023-04-11T02:38:34.252Z,6.50
2023-04-11T02:41:01.078Z,6.50
2023-04-11T02:43:27.887Z,6.50
2023-04-11T02:46:02.044Z,6.50
2023-04-11T02:48:32.906Z,6.50
2023-04-11T02:50:59.777Z,6.60
2023-04-11T02:53:26.624Z,6.60
2023-04-11T02:55:53.439Z,6.60
2023-04-11T02:58:20.269Z,6.70
2023-04-11T03:00:49.738Z,6.70
2023-04-11T03:03:16.701Z,6.70
2023-04-11T03:05:43.760Z,6.70
2023-04-11T03:08:10.584Z,6.70
2023-04-11T03:10:37.519Z,6.70
2023-04-11T03:13:04.354Z,6.70
2023-04-11T03:15:32.418Z,6.80
2023-04-11T03:17:59.392Z,6.80
2023-04-11T03:20:26.315Z,6.80
2023-04-11T03:22:53.334Z,6.80
2023-04-11T03:25:20.173Z,6.80
2023-04-11T03:27:47.115Z,6.70
2023-04-11T03:30:14.953Z,6.70
2023-04-11T03:32:41.983Z,6.60
2023-04-11T03:35:09.119Z,6.60
2023-04-11T03:37:36.494Z,6.60
2023-04-11T03:40:04.349Z,6.60
2023-04-11T03:42:31.318Z,6.70
2023-04-11T03:44:58.066Z,6.70
2023-04-11T03:47:24.945Z,6.70
2023-04-11T03:49:51.938Z,6.80
2023-04-11T03:52:18.909Z,6.80
2023-04-11T03:54:47.669Z,6.80
2023-04-11T03:57:14.828Z,6.90
2023-04-11T03:59:41.667Z,6.90
2023-04-11T04:02:09.317Z,7.00
2023-04-11T04:04:38.643Z,7.00
2023-04-11T04:07:05.512Z,7.00
2023-04-11T04:09:32.314Z,7.00
2023-04-11T04:11:59.141Z,7.00
2023-04-11T04:14:26.249Z,6.90
2023-04-11T04:16:53.207Z,6.90
2023-04-11T04:19:20.228Z,7.00
2023-04-11T04:21:47.009Z,7.00
2023-04-11T04:24:14.137Z,7.00
2023-04-11T04:26:40.999Z,7.00
2023-04-11T04:29:10.087Z,7.00
2023-04-11T04:31:37.730Z,7.10
2023-04-11T04:34:10.856Z,7.10
2023-04-11T04:36:46.477Z,7.10
2023-04-11T04:39:17.595Z,7.10
2023-04-11T04:41:48.938Z,7.20
2023-04-11T04:44:18.900Z,7.20
2023-04-11T04:46:45.756Z,7.20
2023-04-11T04:49:12.690Z,7.20
2023-04-11T04:51:42.487Z,7.20
2023-04-11T04:54:09.311Z,7.30
2023-04-11T04:56:36.141Z,7.30
2023-04-11T04:59:02.994Z,7.30
2023-04-11T05:01:29.906Z,7.30
2023-04-11T05:04:00.691Z,7.30
2023-04-11T05:06:29.557Z,7.30
2023-04-11T05:08:58.665Z,7.30
2023-04-11T05:11:29.297Z,7.40
2023-04-11T05:13:56.396Z,7.40
2023-04-11T05:16:23.501Z,7.30
2023-04-11T05:18:50.577Z,7.30
2023-04-11T05:21:17.595Z,7.30
2023-04-11T05:23:44.467Z,7.30
2023-04-11T05:26:11.577Z,7.40
2023-04-11T05:28:38.501Z,7.40
2023-04-11T05:31:06.343Z,7.40
2023-04-11T05:33:33.295Z,7.40
2023-04-11T05:36:01.137Z,7.50
2023-04-11T05:38:28.042Z,7.50
2023-04-11T05:40:54.928Z,7.50
2023-04-11T05:43:21.762Z,7.50
2023-04-11T05:45:49.237Z,7.50
2023-04-11T05:48:16.705Z,7.50
2023-04-11T05:50:43.492Z,7.50
2023-04-11T05:53:10.271Z,7.50
2023-04-11T05:55:37.490Z,7.50
2023-04-11T05:58:04.943Z,7.50
2023-04-11T06:00:32.449Z,7.50
2023-04-11T06:03:00.418Z,7.60
2023-04-11T06:05:31.359Z,7.60
2023-04-11T06:08:02.109Z,7.70
2023-04-11T06:10:30.447Z,7.80
2023-04-11T06:12:58.191Z,7.90
2023-04-11T06:15:26.973Z,8.00
2023-04-11T06:17:54.313Z,8.00
2023-04-11T06:20:22.634Z,8.00
2023-04-11T06:22:51.522Z,8.10
2023-04-11T06:25:20.238Z,8.10
2023-04-11T06:27:47.667Z,8.20
2023-04-11T06:30:15.202Z,8.20
2023-04-11T06:32:42.190Z,8.20
2023-04-11T06:35:09.601Z,8.20
2023-04-11T06:37:36.475Z,8.20
2023-04-11T06:40:05.885Z,8.20
2023-04-11T06:42:32.797Z,8.10
2023-04-11T06:44:59.791Z,8.20
2023-04-11T06:47:26.801Z,8.20
2023-04-11T06:49:54.556Z,8.30
2023-04-11T06:52:21.558Z,8.40
2023-04-11T06:54:50.893Z,8.50
2023-04-11T06:57:18.052Z,8.50
2023-04-11T06:59:44.972Z,8.60
2023-04-11T07:02:12.185Z,8.60
2023-04-11T07:04:39.231Z,8.60
2023-04-11T07:07:06.335Z,8.60
2023-04-11T07:09:33.422Z,8.50
2023-04-11T07:12:01.223Z,8.50
2023-04-11T07:14:28.069Z,8.50
2023-04-11T07:16:54.884Z,8.50
2023-04-11T07:19:22.127Z,8.50
2023-04-11T07:21:49.717Z,8.70
2023-04-11T07:24:18.680Z,8.80
2023-04-11T07:26:46.754Z,8.90
2023-04-11T07:29:14.813Z,8.90
2023-04-11T07:31:42.105Z,9.00
2023-04-11T07:34:09.022Z,9.10
2023-04-11T07:36:36.083Z,9.20
2023-04-11T07:39:04.544Z,9.20
2023-04-11T07:41:31.444Z,9.30
2023-04-11T07:43:58.446Z,9.40
2023-04-11T07:46:25.521Z,9.60
2023-04-11T07:48:52.627Z,9.70
2023-04-11T07:51:19.448Z,9.80
2023-04-11T07:53:46.391Z,9.80
2023-04-11T07:56:14.785Z,9.80
2023-04-11T07:58:42.007Z,9.80
2023-04-11T08:01:23.901Z,9.60
2023-04-11T08:03:53.181Z,9.40
2023-04-11T08:06:24.081Z,9.30
2023-04-11T08:08:53.548Z,9.20
2023-04-11T08:11:20.720Z,9.30
2023-04-11T08:13:47.810Z,9.50
2023-04-11T08:16:17.859Z,9.80
2023-04-11T08:18:45.817Z,10.00
2023-04-11T08:21:13.010Z,10.10
2023-04-11T08:23:54.360Z,10.20
2023-04-11T08:26:23.249Z,10.10
2023-04-11T08:28:50.418Z,10.10
2023-04-11T08:31:20.495Z,10.20
2023-04-11T08:33:50.661Z,10.20
2023-04-11T08:36:17.568Z,10.40
2023-04-11T08:38:45.797Z,10.50
2023-04-11T08:41:12.932Z,11.10
2023-04-11T08:43:40.382Z,12.00
2023-04-11T08:46:08.329Z,12.70
2023-04-11T08:48:35.659Z,13.40
2023-04-11T08:51:02.679Z,14.70
2023-04-11T08:53:30.494Z,16.40
2023-04-11T08:55:57.389Z,17.40
2023-04-11T08:58:24.216Z,17.20
2023-04-11T09:00:51.129Z,16.40
2023-04-11T09:03:18.461Z,15.20
2023-04-11T09:05:46.834Z,14.20
2023-04-11T09:08:15.980Z,13.20
2023-04-11T09:10:46.606Z,12.30
2023-04-11T09:13:26.249Z,11.60
2023-04-11T09:16:06.537Z,11.20
2023-04-11T09:18:34.606Z,11.00
2023-04-11T09:21:06.018Z,10.80
2023-04-11T09:23:33.589Z,10.70
2023-04-11T09:26:00.937Z,10.50
2023-04-11T09:28:27.866Z,10.60
2023-04-11T09:30:56.035Z,11.90
2023-04-11T09:33:24.999Z,13.00
2023-04-11T09:35:54.173Z,13.20
2023-04-11T09:38:35.215Z,12.80
2023-04-11T09:41:04.482Z,12.00
2023-04-11T09:43:52.304Z,11.40
2023-04-11T09:46:23.493Z,11.00
2023-04-11T09:48:52.432Z,11.50
2023-04-11T09:51:35.007Z,12.90
2023-04-11T09:54:04.498Z,13.80
2023-04-11T09:56:34.177Z,14.70
2023-04-11T09:59:03.750Z,16.10
2023-04-11T10:01:30.877Z,17.80
2023-04-11T10:03:58.364Z,19.40
2023-04-11T10:06:33.711Z,20.70
2023-04-11T10:09:11.730Z,21.60
2023-04-11T10:11:43.962Z,22.10
2023-04-11T10:14:36.743Z,22.80
2023-04-11T10:17:22.107Z,22.50
2023-04-11T10:19:58.708Z,21.70
2023-04-11T10:22:41.107Z,21.30
2023-04-11T10:25:21.700Z,20.50
2023-04-11T10:27:53.911Z,18.90
2023-04-11T10:30:41.071Z,17.00
2023-04-11T10:33:13.430Z,14.90
2023-04-11T10:36:05.804Z,13.40
2023-04-11T10:38:43.228Z,12.30
2023-04-11T10:41:28.951Z,11.50
2023-04-11T10:44:18.171Z,11.10
2023-04-11T10:46:56.134Z,11.00
2023-04-11T10:49:40.018Z,11.40
2023-04-11T10:52:23.503Z,12.50
2023-04-11T10:54:52.495Z,14.00
2023-04-11T10:57:20.333Z,15.60
2023-04-11T10:59:50.586Z,16.90
2023-04-11T11:02:19.478Z,17.90
2023-04-11T11:04:49.584Z,19.00
2023-04-11T11:07:17.423Z,19.80
2023-04-11T11:09:51.384Z,20.80
2023-04-11T11:12:18.460Z,21.30
2023-04-11T11:14:46.777Z,20.90
2023-04-11T11:17:15.396Z,20.80
2023-04-11T11:19:46.504Z,21.10
2023-04-11T11:22:26.058Z,21.70
2023-04-11T11:24:53.357Z,22.30
2023-04-11T11:27:22.544Z,22.70
2023-04-11T11:29:49.853Z,23.00
2023-04-11T11:32:29.942Z,23.30
2023-04-11T11:34:57.612Z,23.40
2023-04-11T11:37:25.022Z,23.50
2023-04-11T11:39:52.326Z,24.10
2023-04-11T11:42:19.479Z,24.60
2023-04-11T11:44:46.386Z,25.00
2023-04-11T11:47:16.640Z,24.80
2023-04-11T11:49:49.901Z,23.90
2023-04-11T11:52:33.907Z,23.00
2023-04-11T11:55:08.092Z,22.50
2023-04-11T11:57:47.705Z,22.70
2023-04-11T12:00:16.261Z,23.30
2023-04-11T12:02:44.703Z,23.90
2023-04-11T12:05:12.378Z,24.50
2023-04-11T12:07:40.591Z,24.80
2023-04-11T12:10:11.609Z,24.60
2023-04-11T12:12:41.228Z,23.50
2023-04-11T12:15:20.067Z,22.60
2023-04-11T12:17:55.116Z,22.60
2023-04-11T12:20:26.792Z,22.30
2023-04-11T12:22:55.450Z,21.80
2023-04-11T12:25:23.281Z,21.90
2023-04-11T12:27:50.768Z,22.40
2023-04-11T12:30:17.798Z,23.00
2023-04-11T12:32:45.612Z,23.40
2023-04-11T12:35:13.093Z,23.70
2023-04-11T12:37:40.603Z,23.70
2023-04-11T12:40:11.109Z,23.80
2023-04-11T12:42:49.534Z,24.10
2023-04-11T12:45:23.479Z,23.80
2023-04-11T12:47:50.704Z,23.50
2023-04-11T12:50:17.954Z,23.30
2023-04-11T12:52:44.791Z,23.30
2023-04-11T12:55:13.007Z,23.10
2023-04-11T12:57:40.159Z,22.80
2023-04-11T13:00:08.413Z,22.70
2023-04-11T13:02:42.211Z,22.30
2023-04-11T13:05:14.437Z,22.20
2023-04-11T13:07:42.156Z,22.20
2023-04-11T13:10:09.846Z,22.30
2023-04-11T13:12:41.635Z,22.50
2023-04-11T13:15:12.039Z,22.20
2023-04-11T13:17:38.954Z,21.20
2023-04-11T13:20:10.426Z,20.20
2023-04-11T13:22:41.788Z,19.40
2023-04-11T13:25:09.621Z,18.50
2023-04-11T13:27:37.289Z,17.70
2023-04-11T13:30:05.022Z,17.50
2023-04-11T13:32:35.001Z,17.80
2023-04-11T13:35:02.215Z,18.60
2023-04-11T13:37:29.175Z,19.20
2023-04-11T13:39:56.019Z,19.10
2023-04-11T13:42:22.857Z,18.50
2023-04-11T13:44:52.658Z,17.80
2023-04-11T13:47:19.507Z,17.60
2023-04-11T13:49:46.365Z,17.60
2023-04-11T13:52:13.225Z,17.50
2023-04-11T13:54:40.158Z,17.40
2023-04-11T13:57:10.337Z,17.00
2023-04-11T13:59:37.206Z,16.70
2023-04-11T14:02:04.667Z,16.80
2023-04-11T14:04:31.797Z,16.80
2023-04-11T14:06:58.697Z,16.80
2023-04-11T14:09:25.873Z,17.30
2023-04-11T14:11:52.756Z,17.60
2023-04-11T14:14:19.630Z,17.30
2023-04-11T14:16:46.582Z,16.80
2023-04-11T14:19:13.598Z,16.10
2023-04-11T14:21:40.659Z,15.70
2023-04-11T14:24:08.773Z,15.40
2023-04-11T14:26:35.643Z,15.20
2023-04-11T14:29:03.184Z,15.10
2023-04-11T14:31:30.525Z,14.90
2023-04-11T14:33:57.724Z,14.80
2023-04-11T14:36:24.821Z,15.00
2023-04-11T14:38:51.732Z,15.30
2023-04-11T14:41:19.347Z,15.40
2023-04-11T14:43:46.212Z,15.70
2023-04-11T14:46:13.100Z,15.90
2023-04-11T14:48:40.044Z,16.00
2023-04-11T14:51:07.221Z,15.90
2023-04-11T14:53:34.133Z,15.70
2023-04-11T14:56:05.825Z,15.70
2023-04-11T14:58:33.032Z,15.80
2023-04-11T15:00:59.895Z,15.90
2023-04-11T15:03:26.986Z,15.90
2023-04-11T15:05:54.090Z,15.90
2023-04-11T15:08:21.283Z,15.80
2023-04-11T15:10:53.829Z,15.50
2023-04-11T15:13:23.619Z,15.10
2023-04-11T15:15:51.466Z,14.80
2023-04-11T15:18:28.025Z,14.70
2023-04-11T15:21:03.264Z,14.60
2023-04-11T15:23:30.777Z,14.60
2023-04-11T15:26:02.702Z,14.60
2023-04-11T15:28:34.926Z,14.60
2023-04-11T15:31:02.671Z,14.60
2023-04-11T15:33:32.500Z,14.50
2023-04-11T15:36:02.348Z,14.40
2023-04-11T15:38:29.497Z,14.30
2023-04-11T15:40:58.566Z,14.20
2023-04-11T15:43:27.419Z,14.10
2023-04-11T15:46:00.391Z,14.00
2023-04-11T15:48:27.200Z,13.90
2023-04-11T15:50:54.231Z,13.90
2023-04-11T15:53:22.709Z,13.70
2023-04-11T15:55:55.507Z,13.70
2023-04-11T15:58:22.330Z,13.60
2023-04-11T16:00:49.196Z,13.50
2023-04-11T16:03:16.642Z,13.40
2023-04-11T16:05:44.176Z,13.30
2023-04-11T16:08:11.053Z,13.20
2023-04-11T16:10:37.869Z,13.10
2023-04-11T16:13:04.850Z,13.00
2023-04-11T16:15:33.623Z,12.90
2023-04-11T16:18:00.828Z,12.80
2023-04-11T16:20:27.928Z,12.70
2023-04-11T16:22:54.761Z,12.60
2023-04-11T16:25:23.712Z,12.50
2023-04-11T16:27:51.501Z,12.50
2023-04-11T16:30:19.779Z,12.40
2023-04-11T16:32:47.055Z,12.40
2023-04-11T16:35:14.034Z,12.30
2023-04-11T16:37:40.878Z,12.30
2023-04-11T16:40:11.271Z,12.20
2023-04-11T16:42:39.337Z,12.10
2023-04-11T16:45:07.321Z,12.10
2023-04-11T16:47:34.210Z,12.00
2023-04-11T16:50:01.358Z,12.00
2023-04-11T16:52:30.815Z,12.00
2023-04-11T16:54:57.638Z,11.90
2023-04-11T16:57:25.481Z,11.90
2023-04-11T16:59:52.295Z,11.80
2023-04-11T17:02:19.192Z,11.70
2023-04-11T17:04:46.254Z,11.70
2023-04-11T17:07:13.508Z,11.70
2023-04-11T17:09:41.521Z,11.60
2023-04-11T17:12:08.372Z,11.60
2023-04-11T17:14:36.538Z,11.50
2023-04-11T17:17:03.810Z,11.50
2023-04-11T17:19:31.704Z,11.40
2023-04-11T17:21:58.593Z,11.40
2023-04-11T17:24:25.758Z,11.30
2023-04-11T17:26:52.944Z,11.20
2023-04-11T17:29:20.281Z,11.10
2023-04-11T17:31:47.215Z,11.00
2023-04-11T17:34:14.411Z,10.90
2023-04-11T17:36:42.872Z,10.80
2023-04-11T17:39:17.590Z,10.60
2023-04-11T17:41:46.041Z,10.50
2023-04-11T17:44:14.596Z,10.40
2023-04-11T17:46:41.538Z,10.30
2023-04-11T17:49:08.518Z,10.20
2023-04-11T17:51:38.821Z,10.10
2023-04-11T17:54:11.778Z,10.00
2023-04-11T17:56:38.552Z,9.90
2023-04-11T17:59:05.463Z,9.80
2023-04-11T18:01:32.690Z,9.70
2023-04-11T18:04:01.431Z,9.70
2023-04-11T18:06:29.602Z,9.60
2023-04-11T18:08:56.689Z,9.50
2023-04-11T18:11:23.558Z,9.50
2023-04-11T18:13:53.645Z,9.30
2023-04-11T18:16:21.811Z,9.20
2023-04-11T18:18:48.878Z,9.10
2023-04-11T18:21:16.551Z,9.00
2023-04-11T18:23:43.441Z,8.90
2023-04-11T18:26:12.930Z,8.90
2023-04-11T18:28:39.850Z,8.80
2023-04-11T18:31:07.027Z,8.70
2023-04-11T18:33:34.929Z,8.60
2023-04-11T18:36:02.147Z,8.50
2023-04-11T18:38:29.002Z,8.40
2023-04-11T18:40:56.750Z,8.30
2023-04-11T18:43:27.245Z,8.30
2023-04-11T18:45:57.239Z,8.20
2023-04-11T18:48:27.618Z,8.10
2023-04-11T18:51:01.752Z,8.00
2023-04-11T18:53:30.035Z,7.90
2023-04-11T18:56:03.098Z,7.80
2023-04-11T18:58:32.397Z,7.80
2023-04-11T19:01:13.462Z,7.70
2023-04-11T19:03:46.387Z,7.60
2023-04-11T19:06:13.650Z,7.50
2023-04-11T19:08:40.894Z,7.50
2023-04-11T19:11:07.755Z,7.40
2023-04-11T19:13:34.773Z,7.30
2023-04-11T19:16:01.971Z,7.20
2023-04-11T19:18:31.324Z,7.20
2023-04-11T19:20:58.253Z,7.10
2023-04-11T19:23:25.822Z,7.10
2023-04-11T19:25:52.816Z,7.00
2023-04-11T19:28:21.082Z,6.90
2023-04-11T19:30:57.595Z,6.90
2023-04-11T19:33:26.025Z,6.80
2023-04-11T19:35:54.274Z,6.80
2023-04-11T19:38:21.806Z,6.70
2023-04-11T19:40:57.036Z,6.70
2023-04-11T19:43:26.249Z,6.60
2023-04-11T19:45:53.213Z,6.60
2023-04-11T19:48:24.152Z,6.60
2023-04-11T19:50:51.882Z,6.60
2023-04-11T20:56:52.776Z,6.20
2023-04-11T20:59:19.733Z,6.30
2023-04-11T21:01:49.903Z,6.30
2023-04-11T21:04:19.031Z,6.30
2023-04-11T21:06:46.204Z,6.40
2023-04-11T21:09:13.160Z,6.40
2023-04-11T21:11:40.116Z,6.50
2023-04-11T21:14:06.952Z,6.50
2023-04-11T21:16:34.228Z,6.50
2023-04-11T21:19:01.223Z,6.50
2023-04-11T21:21:28.280Z,6.60
2023-04-11T21:23:55.525Z,6.60
2023-04-11T21:26:23.579Z,6.60
2023-04-11T21:28:50.556Z,6.50
2023-04-11T21:31:17.577Z,6.60
2023-04-11T21:33:46.605Z,6.60
2023-04-11T21:36:13.443Z,6.60
2023-04-11T21:38:40.460Z,6.60
2023-04-11T21:41:07.584Z,6.70
2023-04-11T21:43:34.873Z,6.70
2023-04-11T21:46:01.709Z,6.70
2023-04-11T21:48:28.624Z,6.70
2023-04-11T21:50:55.651Z,6.70
2023-04-11T21:53:22.457Z,6.70
2023-04-11T21:55:49.271Z,6.80
2023-04-11T21:58:28.553Z,6.80
2023-04-11T22:00:56.301Z,6.90
2023-04-11T22:03:23.791Z,7.00
2023-04-11T22:05:52.331Z,7.00
2023-04-11T22:08:20.061Z,7.10
2023-04-11T22:10:48.334Z,7.10
2023-04-11T22:13:17.884Z,7.10
2023-04-11T22:15:46.389Z,7.20
2023-04-11T22:18:13.463Z,7.20
2023-04-11T22:20:43.692Z,7.20
2023-04-11T22:23:12.894Z,7.20
2023-04-11T22:25:44.596Z,7.20
2023-04-11T22:28:18.330Z,7.20
2023-04-11T22:30:46.607Z,7.10
2023-04-11T22:33:14.007Z,7.20
2023-04-11T22:35:41.201Z,7.20
2023-04-11T22:38:08.314Z,7.20
2023-04-11T22:40:35.489Z,7.20
2023-04-11T22:43:02.840Z,7.20
2023-04-11T22:45:29.654Z,7.20
2023-04-11T22:48:00.159Z,7.20
2023-04-11T22:50:27.114Z,7.30
2023-04-11T22:52:54.938Z,7.30
2023-04-11T22:55:24.579Z,7.30
2023-04-11T22:57:51.537Z,7.30
2023-04-11T23:00:19.241Z,7.30
2023-04-11T23:02:47.069Z,7.30
2023-04-11T23:05:14.286Z,7.30
2023-04-11T23:07:41.865Z,7.40
2023-04-11T23:10:13.937Z,7.40
2023-04-11T23:12:44.520Z,7.50
2023-04-11T23:15:12.495Z,7.50
2023-04-11T23:17:40.033Z,7.50
2023-04-11T23:20:12.467Z,7.50
2023-04-11T23:22:42.343Z,7.60
2023-04-11T23:25:13.950Z,7.60
2023-04-11T23:27:43.784Z,7.60
2023-04-11T23:30:11.889Z,7.60
2023-04-11T23:32:40.000Z,7.60
2023-04-11T23:35:07.776Z,7.60
2023-04-11T23:37:34.592Z,7.60
2023-04-11T23:40:10.578Z,7.60
2023-04-11T23:42:38.698Z,7.60
2023-04-11T23:45:06.724Z,7.60
2023-04-11T23:47:34.660Z,7.60
2023-04-11T23:50:02.786Z,7.60
2023-04-11T23:52:30.456Z,7.60
2023-04-11T23:54:58.429Z,7.60
2023-04-11T23:57:25.269Z,7.60
2023-04-11T23:59:52.403Z,7.60
